Terminal Aerodrome Forecast
Issued by NWS Cleveland, OH

Home | Current Version | Previous Version | Graphics & Text | Print | Product List | Glossary On
Versions: 1 2 3 4 5 6 7 8 9 10 11 12 13 14 15 16 17 18 19 20 21 22 23 24 25
000
FTUS41 KCLE 172104 AAC
TAFCLE
TAF AMD
KCLE 172104Z 1721/1824 18008KT P6SM SCT035 OVC100
     FM172200 19008KT P6SM VCSH BKN030
      TEMPO 1802/1806 22008KT 4SM -SHSN OVC015
     FM180600 25010KT P6SM OVC015
     FM180900 27008KT P6SM OVC025
     FM181300 24006KT P6SM BKN040=

USA.gov is the U.S. government's official web portal to all federal, state and local government web resources and services.